Time;durP1;ratioP1;P1;durP2;ratioP2;P2;SDS_P1;SDS_P2;PMS_P1;PMS_P2;Temp;Humidity;BMP_temperature;BMP_pressure;BME280_temperature;BME280_humidity;BME280_pressure;Samples;Min_cycle;Max_cycle;Signal;HPM_P1;HPM_P2
2022/06/03 00:01:36;;;;;;;4.83;3.80;;;8.70;99.90;;;;;;5061215;28;20198;-48
2022/06/03 00:04:19;;;;;;;4.97;3.53;;;8.70;99.90;;;;;;5063120;28;20198;-50
2022/06/03 00:07:08;;;;;;;5.47;3.30;;;8.70;99.90;;;;;;5060891;28;20202;-47
2022/06/03 00:09:49;;;;;;;6.30;3.70;;;8.60;99.90;;;;;;5041480;28;20214;-48
2022/06/03 00:12:44;;;;;;;5.03;3.70;;;8.60;99.90;;;;;;5046345;28;20218;-50
2022/06/03 00:15:24;;;;;;;3.73;3.30;;;8.60;99.90;;;;;;5043675;28;20230;-48
2022/06/03 00:18:18;;;;;;;9.00;4.27;;;8.50;99.90;;;;;;5042565;28;20199;-49
2022/06/03 00:21:01;;;;;;;3.87;3.27;;;8.40;99.90;;;;;;5057658;28;20198;-48
2022/06/03 00:23:51;;;;;;;4.00;3.33;;;8.40;99.90;;;;;;5059390;28;20257;-50
2022/06/03 00:26:42;;;;;;;4.33;3.93;;;8.40;99.90;;;;;;5041636;28;20572;-50
2022/06/03 00:29:30;;;;;;;8.50;3.70;;;8.50;99.90;;;;;;5051559;28;20276;-49
2022/06/03 00:32:17;;;;;;;4.30;3.70;;;8.50;99.90;;;;;;5057812;28;20272;-46
2022/06/03 00:34:57;;;;;;;3.53;3.23;;;8.40;99.90;;;;;;5060006;28;20201;-48
2022/06/03 00:37:34;;;;;;;4.67;3.60;;;8.20;99.90;;;;;;5060443;28;20209;-48
2022/06/03 00:40:13;;;;;;;5.30;3.80;;;8.10;99.90;;;;;;5049982;28;20268;-50
2022/06/03 00:43:08;;;;;;;4.03;3.50;;;8.00;99.90;;;;;;5049948;28;20190;-47
2022/06/03 00:45:46;;;;;;;5.77;3.13;;;8.00;99.90;;;;;;5039660;28;20907;-49
2022/06/03 00:48:42;;;;;;;5.67;4.03;;;7.90;99.90;;;;;;5056600;28;20543;-50
2022/06/03 00:51:25;;;;;;;4.63;3.80;;;8.00;99.90;;;;;;5062761;28;20214;-51
2022/06/03 00:54:08;;;;;;;4.50;4.10;;;8.10;99.90;;;;;;5061113;28;20895;-46
2022/06/03 00:56:54;;;;;;;5.53;3.70;;;8.10;99.90;;;;;;5046657;28;20229;-50
2022/06/03 01:00:00;;;;;;;4.07;3.63;;;8.00;99.90;;;;;;5058644;28;20221;-48
2022/06/03 01:02:46;;;;;;;5.50;3.50;;;8.00;99.90;;;;;;4985738;28;20219;-51
2022/06/03 01:05:25;;;;;;;4.47;4.07;;;7.90;99.90;;;;;;4984943;28;20204;-48
2022/06/03 01:08:05;;;;;;;4.93;4.07;;;8.00;99.90;;;;;;5027838;28;20218;-47
2022/06/03 01:10:51;;;;;;;8.00;4.70;;;8.00;99.90;;;;;;5043298;28;20302;-51
2022/06/03 01:13:54;;;;;;;7.30;4.23;;;7.90;99.90;;;;;;5046332;28;20851;-51
2022/06/03 01:16:32;;;;;;;6.23;4.07;;;7.90;99.90;;;;;;5047103;28;20199;-50
2022/06/03 01:19:15;;;;;;;5.50;3.50;;;7.90;99.90;;;;;;5048615;28;20707;-46
2022/06/03 01:21:53;;;;;;;5.87;4.30;;;7.80;99.90;;;;;;5049494;28;20183;-48
2022/06/03 01:24:59;;;;;;;6.10;3.83;;;7.80;99.90;;;;;;5057966;28;20582;-49
2022/06/03 01:28:11;;;;;;;6.50;4.10;;;7.80;99.90;;;;;;5046429;28;20299;-47
2022/06/03 01:30:52;;;;;;;4.00;3.70;;;7.80;99.90;;;;;;5053455;28;20214;-47
2022/06/03 01:33:41;;;;;;;4.47;4.10;;;7.60;99.90;;;;;;5048559;28;20203;-49
2022/06/03 01:36:36;;;;;;;5.37;3.77;;;7.60;99.90;;;;;;5046955;28;20203;-48
2022/06/03 01:39:20;;;;;;;4.50;3.70;;;7.50;99.90;;;;;;5033333;28;20231;-47
2022/06/03 01:42:17;;;;;;;4.30;3.70;;;7.40;99.90;;;;;;5044960;28;20190;-47
2022/06/03 01:45:07;;;;;;;4.23;3.17;;;7.40;99.90;;;;;;5052822;28;20190;-51
2022/06/03 01:48:00;;;;;;;3.80;3.43;;;7.40;99.90;;;;;;5045449;28;20253;-49
2022/06/03 01:50:48;;;;;;;4.00;3.60;;;7.30;99.90;;;;;;5043635;28;20227;-50
2022/06/03 01:53:54;;;;;;;3.90;3.60;;;7.20;99.90;;;;;;5060951;28;20611;-51
2022/06/03 01:56:48;;;;;;;3.83;3.53;;;7.30;99.90;;;;;;5056143;28;20203;-51
2022/06/03 01:59:52;;;;;;;4.00;3.60;;;7.20;99.90;;;;;;5043330;28;20230;-49
2022/06/03 02:02:52;;;;;;;3.73;3.43;;;7.10;99.90;;;;;;5048381;28;20575;-52
2022/06/03 02:05:43;;;;;;;4.53;3.97;;;7.20;99.90;;;;;;5058141;28;20197;-50
2022/06/03 02:08:53;;;;;;;5.37;4.00;;;7.20;99.90;;;;;;5064324;28;20563;-52
2022/06/03 02:11:51;;;;;;;4.70;4.30;;;7.20;99.90;;;;;;5038149;28;20707;-49
2022/06/03 02:14:58;;;;;;;7.53;3.93;;;7.20;99.90;;;;;;5040679;28;20244;-51
2022/06/03 02:18:00;;;;;;;6.60;4.20;;;7.30;99.90;;;;;;5054550;28;20210;-52
2022/06/03 02:20:50;;;;;;;4.87;3.70;;;7.20;99.90;;;;;;5042876;28;20252;-51
2022/06/03 02:23:52;;;;;;;4.03;3.63;;;7.10;99.90;;;;;;5044829;28;20210;-51
2022/06/03 02:26:50;;;;;;;4.33;3.87;;;7.20;99.90;;;;;;5056695;28;20206;-49
2022/06/03 02:33:01;;;;;;;5.60;3.83;;;7.10;99.90;;;;;;5042060;28;20958;-52
2022/06/03 02:35:41;;;;;;;5.63;4.13;;;7.00;99.90;;;;;;5048187;28;20209;-51
2022/06/03 02:38:23;;;;;;;7.13;4.43;;;7.10;99.90;;;;;;5059468;28;20203;-50
2022/06/03 02:41:31;;;;;;;5.07;4.20;;;7.10;99.90;;;;;;5063555;28;20828;-47
2022/06/03 02:44:33;;;;;;;4.63;3.90;;;7.10;99.90;;;;;;5064462;28;20210;-46
2022/06/03 02:47:33;;;;;;;5.10;4.10;;;7.10;99.90;;;;;;5039109;28;20198;-46
2022/06/03 02:50:41;;;;;;;4.53;4.13;;;7.00;99.90;;;;;;5051233;28;20222;-47
2022/06/03 02:53:57;;;;;;;4.60;4.20;;;6.90;99.90;;;;;;5058911;28;20223;-50
2022/06/03 02:56:46;;;;;;;5.47;4.40;;;6.90;99.90;;;;;;5054526;28;20207;-50
2022/06/03 02:59:50;;;;;;;7.50;4.67;;;6.90;99.90;;;;;;5039950;28;20246;-51
2022/06/03 03:02:35;;;;;;;8.70;5.07;;;7.00;99.90;;;;;;5057359;28;20195;-53
2022/06/03 03:05:37;;;;;;;4.87;4.33;;;6.90;99.90;;;;;;5046609;28;20198;-47
2022/06/03 03:08:55;;;;;;;5.50;4.80;;;6.70;99.90;;;;;;5045062;28;20659;-49
2022/06/03 03:12:02;;;;;;;5.90;4.00;;;6.70;99.90;;;;;;5060557;28;20226;-49
2022/06/03 03:15:06;;;;;;;4.27;3.97;;;6.80;99.90;;;;;;4998287;28;20216;-48
2022/06/03 03:17:50;;;;;;;5.13;4.20;;;6.80;99.90;;;;;;4997882;28;20291;-46
2022/06/03 03:20:54;;;;;;;5.27;4.37;;;6.70;99.90;;;;;;5034823;28;20235;-48
2022/06/03 03:23:50;;;;;;;7.13;4.63;;;6.80;99.90;;;;;;5044603;28;20221;-51
2022/06/03 03:26:23;;;;;;;5.43;4.17;;;6.80;99.90;;;;;;5054085;28;20210;-51
2022/06/03 03:29:10;;;;;;;4.50;4.00;;;6.70;99.90;;;;;;5047228;28;20236;-46
2022/06/03 03:32:14;;;;;;;5.23;4.23;;;6.60;99.90;;;;;;5045837;28;20226;-48
2022/06/03 03:35:11;;;;;;;5.53;4.23;;;6.50;99.90;;;;;;5042228;28;20205;-48
2022/06/03 03:38:06;;;;;;;5.00;4.27;;;6.60;99.90;;;;;;5043395;28;20217;-48
2022/06/03 03:41:14;;;;;;;7.27;4.60;;;6.60;99.90;;;;;;5044505;28;20286;-46
2022/06/03 03:44:23;;;;;;;6.37;4.53;;;6.50;99.90;;;;;;5056615;28;20202;-48
2022/06/03 03:47:37;;;;;;;5.20;4.63;;;6.60;99.90;;;;;;5024916;28;20218;-51
2022/06/03 03:50:38;;;;;;;5.50;4.17;;;6.60;99.90;;;;;;5023527;28;20227;-47
2022/06/03 03:53:30;;;;;;;7.40;4.43;;;6.60;99.90;;;;;;5048713;28;20202;-50
2022/06/03 03:56:30;;;;;;;5.20;4.13;;;6.70;99.90;;;;;;5053847;28;20198;-50
2022/06/03 03:59:35;;;;;;;5.30;4.50;;;6.70;99.90;;;;;;5041116;28;20223;-49
2022/06/03 04:02:46;;;;;;;5.20;4.60;;;6.70;99.90;;;;;;5034806;28;20207;-48
2022/06/03 04:05:43;;;;;;;5.50;4.50;;;6.80;99.90;;;;;;5032670;28;20214;-48
2022/06/03 04:08:37;;;;;;;6.73;4.60;;;6.90;99.90;;;;;;5047347;28;20617;-52
2022/06/03 04:11:35;;;;;;;7.50;4.53;;;6.90;99.90;;;;;;5046408;28;20695;-53
2022/06/03 04:14:45;;;;;;;5.03;4.53;;;6.90;99.90;;;;;;5042601;28;20199;-49
2022/06/03 04:17:40;;;;;;;5.00;4.50;;;6.90;99.90;;;;;;5039630;28;20273;-47
2022/06/03 04:20:31;;;;;;;5.03;4.27;;;6.90;99.90;;;;;;5046411;28;20820;-49
2022/06/03 04:23:34;;;;;;;5.00;4.50;;;6.90;99.90;;;;;;5053363;28;20625;-49
2022/06/03 04:26:23;;;;;;;7.07;4.93;;;6.90;99.90;;;;;;4978545;28;20229;-48
2022/06/03 04:29:00;;;;;;;5.50;4.37;;;7.00;99.90;;;;;;5051448;28;20245;-53
2022/06/03 04:32:05;;;;;;;5.67;4.47;;;7.00;99.90;;;;;;5047481;28;20226;-47
2022/06/03 04:35:05;;;;;;;5.97;4.57;;;7.00;99.90;;;;;;5030679;28;21751;-47
2022/06/03 04:38:34;;;;;;;5.70;4.40;;;7.10;99.90;;;;;;5048773;28;20198;-51
2022/06/03 04:41:31;;;;;;;6.27;5.20;;;7.30;99.90;;;;;;5053877;28;20197;-49
2022/06/03 04:44:34;;;;;;;8.67;5.77;;;7.40;99.90;;;;;;5038866;28;20274;-50
2022/06/03 04:47:43;;;;;;;6.50;5.87;;;7.50;99.90;;;;;;5022290;28;20264;-47
2022/06/03 04:51:00;;;;;;;10.27;7.00;;;7.50;99.90;;;;;;5034554;28;20241;-52
2022/06/03 04:54:06;;;;;;;8.67;6.73;;;7.60;99.90;;;;;;5047027;28;20309;-47
2022/06/03 04:57:24;;;;;;;7.30;6.17;;;7.70;99.90;;;;;;5037525;28;20210;-51
2022/06/03 05:00:21;;;;;;;7.70;6.40;;;7.90;99.90;;;;;;5059104;28;20215;-46
2022/06/03 05:03:27;;;;;;;9.10;6.10;;;8.00;99.90;;;;;;5048225;28;20198;-46
2022/06/03 05:06:42;;;;;;;8.03;6.77;;;8.10;99.90;;;;;;5045842;28;20214;-47
2022/06/03 05:10:01;;;;;;;9.70;7.27;;;8.20;99.90;;;;;;5054629;28;20687;-51
2022/06/03 05:13:08;;;;;;;10.57;7.17;;;8.30;99.90;;;;;;5040955;28;20219;-47
2022/06/03 05:16:02;;;;;;;8.47;7.07;;;8.40;99.90;;;;;;5056222;28;20195;-47
2022/06/03 05:19:04;;;;;;;12.33;9.13;;;8.60;99.90;;;;;;5048299;28;20223;-47
2022/06/03 05:22:03;;;;;;;13.53;9.77;;;8.70;99.90;;;;;;5039865;28;20281;-47
2022/06/03 05:25:00;;;;;;;15.77;10.53;;;8.80;99.90;;;;;;5043719;28;20230;-47
2022/06/03 05:28:04;;;;;;;15.27;10.33;;;8.90;99.90;;;;;;5043619;28;20990;-48
2022/06/03 05:31:01;;;;;;;17.53;10.53;;;9.10;99.90;;;;;;5048979;28;20226;-48
2022/06/03 05:33:45;;;;;;;16.23;10.93;;;9.30;99.90;;;;;;5039568;28;20896;-47
2022/06/03 05:36:42;;;;;;;12.83;10.60;;;9.40;99.90;;;;;;5045602;28;20195;-51
2022/06/03 05:39:46;;;;;;;17.20;10.83;;;9.50;99.90;;;;;;5038380;28;20227;-51
2022/06/03 05:42:27;;;;;;;16.50;10.40;;;9.60;99.90;;;;;;5055973;28;20286;-51
2022/06/03 05:45:26;;;;;;;13.03;11.03;;;9.80;99.90;;;;;;5050838;28;20594;-46
2022/06/03 05:47:57;;;;;;;12.60;9.70;;;9.90;99.90;;;;;;5051435;28;20686;-46
2022/06/03 05:50:38;;;;;;;15.13;10.20;;;10.10;99.90;;;;;;5041408;28;20207;-46
2022/06/03 05:53:18;;;;;;;12.10;10.07;;;10.20;99.90;;;;;;5048005;28;20215;-47
2022/06/03 05:55:54;;;;;;;15.67;9.67;;;10.30;99.90;;;;;;5060319;28;20206;-48
2022/06/03 05:58:34;;;;;;;14.33;9.53;;;10.40;99.90;;;;;;5047892;28;20250;-47
2022/06/03 06:01:20;;;;;;;14.30;9.00;;;10.50;99.90;;;;;;5052087;28;20230;-49
2022/06/03 06:03:56;;;;;;;12.27;9.97;;;10.70;99.90;;;;;;5046347;28;20206;-48
2022/06/03 06:06:34;;;;;;;13.93;8.97;;;10.80;99.90;;;;;;5046138;28;20195;-46
2022/06/03 06:09:21;;;;;;;8.17;7.40;;;10.90;99.90;;;;;;5045446;28;20218;-50
2022/06/03 06:12:08;;;;;;;9.10;6.77;;;11.00;99.90;;;;;;5065372;28;20331;-48
2022/06/03 06:14:52;;;;;;;8.47;6.33;;;11.00;99.90;;;;;;5042700;28;20506;-46
2022/06/03 06:17:41;;;;;;;7.67;6.67;;;11.10;99.90;;;;;;5045486;28;20199;-48
2022/06/03 06:20:19;;;;;;;6.73;5.20;;;11.20;99.90;;;;;;5043092;28;20218;-52
2022/06/03 06:22:49;;;;;;;6.60;5.10;;;11.20;99.90;;;;;;5049362;28;20609;-49
2022/06/03 06:25:23;;;;;;;6.90;5.83;;;11.30;99.90;;;;;;5049776;28;21107;-49
2022/06/03 06:27:59;;;;;;;6.57;5.07;;;11.40;99.90;;;;;;5050484;28;20209;-50
2022/06/03 06:31:11;;;;;;;5.47;4.73;;;11.60;99.90;;;;;;5050611;28;20194;-53
2022/06/03 06:34:12;;;;;;;11.63;5.73;;;11.70;99.90;;;;;;5033352;28;20211;-53
2022/06/03 06:37:23;;;;;;;10.80;5.37;;;11.80;99.90;;;;;;5064351;28;20206;-54
2022/06/03 06:40:00;;;;;;;7.47;4.10;;;11.90;99.90;;;;;;5044843;28;20461;-49
2022/06/03 06:42:42;;;;;;;11.03;5.30;;;12.00;99.90;;;;;;5049299;28;20194;-47
2022/06/03 06:45:30;;;;;;;8.17;5.40;;;12.20;99.90;;;;;;5038369;28;20206;-52
2022/06/03 06:48:04;;;;;;;8.83;5.13;;;12.20;99.90;;;;;;5049889;28;20332;-51
2022/06/03 06:50:40;;;;;;;7.37;4.83;;;12.30;99.90;;;;;;5044726;28;20204;-48
2022/06/03 06:53:12;;;;;;;7.23;4.77;;;12.30;99.90;;;;;;5037446;28;20219;-55
2022/06/03 06:55:55;;;;;;;6.90;5.10;;;12.40;99.90;;;;;;5035954;28;20207;-48
2022/06/03 06:58:42;;;;;;;6.07;4.77;;;12.40;99.90;;;;;;5050133;28;20234;-48
2022/06/03 07:01:12;;;;;;;6.77;4.37;;;12.50;99.90;;;;;;5048538;28;20199;-51
2022/06/03 07:03:54;;;;;;;10.07;4.13;;;12.60;99.90;;;;;;5045239;28;20207;-53
2022/06/03 07:06:29;;;;;;;4.50;4.07;;;12.70;99.90;;;;;;5042212;28;20232;-49
2022/06/03 07:09:17;;;;;;;4.50;4.00;;;12.80;99.90;;;;;;5044115;28;20296;-53
2022/06/03 07:11:51;;;;;;;4.37;3.70;;;12.90;99.90;;;;;;5043182;28;20574;-56
2022/06/03 07:14:21;;;;;;;5.33;3.80;;;12.90;99.90;;;;;;5043513;28;20847;-52
2022/06/03 07:19:50;;;;;;;3.40;2.73;;;13.10;99.90;;;;;;5051444;28;20273;-54
2022/06/03 07:22:23;;;;;;;5.27;3.27;;;13.20;99.90;;;;;;5040578;28;20265;-53
2022/06/03 07:24:58;;;;;;;3.97;3.13;;;13.30;99.90;;;;;;5044101;28;20250;-53
2022/06/03 07:27:29;;;;;;;5.30;3.17;;;13.20;99.90;;;;;;5044120;28;20190;-53
2022/06/03 07:30:04;;;;;;;3.23;2.93;;;13.30;99.90;;;;;;5052300;28;20222;-51
2022/06/03 07:32:39;;;;;;;2.97;2.53;;;13.30;99.90;;;;;;5045339;28;20222;-51
2022/06/03 07:35:14;;;;;;;4.67;2.73;;;13.40;99.90;;;;;;5041526;28;20218;-51
2022/06/03 07:37:50;;;;;;;3.60;2.77;;;13.60;99.90;;;;;;5044649;28;20218;-53
2022/06/03 07:40:24;;;;;;;3.83;2.70;;;13.70;99.90;;;;;;5042553;28;20396;-52
2022/06/03 07:42:58;;;;;;;6.10;3.10;;;13.80;99.90;;;;;;5044852;28;20285;-52
2022/06/03 07:45:36;;;;;;;4.60;3.50;;;13.90;99.90;;;;;;5044888;28;20195;-52
2022/06/03 07:48:06;;;;;;;4.73;2.90;;;13.90;99.90;;;;;;5055234;28;20656;-51
2022/06/03 07:50:37;;;;;;;7.13;2.77;;;14.00;99.90;;;;;;5045359;28;20207;-54
2022/06/03 07:53:11;;;;;;;5.03;2.90;;;14.10;99.90;;;;;;5041375;28;20223;-55
2022/06/03 07:55:40;;;;;;;4.23;2.43;;;14.20;99.90;;;;;;5044213;28;20206;-49
2022/06/03 07:58:09;;;;;;;4.50;2.63;;;14.30;99.90;;;;;;5041074;28;20209;-52
2022/06/03 08:00:38;;;;;;;5.67;2.67;;;14.30;99.90;;;;;;5054410;28;20209;-51
2022/06/03 08:03:13;;;;;;;2.73;2.50;;;14.40;99.90;;;;;;5041900;28;20196;-52
2022/06/03 08:05:41;;;;;;;3.83;2.60;;;14.50;99.90;;;;;;5044480;28;20206;-52
2022/06/03 08:11:00;;;;;;;3.43;2.20;;;14.70;99.90;;;;;;5043335;28;20199;-52
2022/06/03 08:13:44;;;;;;;3.00;2.27;;;14.80;99.90;;;;;;5034162;28;20226;-48
2022/06/03 08:16:23;;;;;;;4.43;2.90;;;14.80;99.90;;;;;;5047642;28;20277;-49
2022/06/03 08:18:56;;;;;;;3.47;1.73;;;14.90;99.90;;;;;;5054988;28;20267;-52
2022/06/03 08:21:27;;;;;;;2.63;1.80;;;15.00;99.90;;;;;;5042171;28;20337;-48
2022/06/03 08:23:55;;;;;;;4.03;1.57;;;15.00;99.90;;;;;;5042851;28;20188;-52
2022/06/03 08:26:26;;;;;;;3.47;1.23;;;15.10;99.90;;;;;;5041206;28;20191;-51
2022/06/03 08:28:57;;;;;;;1.70;1.33;;;15.10;99.90;;;;;;5053573;28;20614;-54
2022/06/03 08:31:25;;;;;;;1.33;1.00;;;15.10;99.90;;;;;;5041080;28;20788;-48
2022/06/03 08:33:58;;;;;;;2.03;1.33;;;15.20;99.90;;;;;;5051170;28;20230;-49
2022/06/03 08:36:28;;;;;;;1.80;1.70;;;15.30;99.90;;;;;;5041704;28;20804;-51
2022/06/03 08:39:01;;;;;;;2.53;1.70;;;15.40;99.90;;;;;;5041441;28;20721;-51
2022/06/03 08:41:49;;;;;;;3.50;1.23;;;15.50;99.90;;;;;;5048231;28;20195;-48
2022/06/03 08:44:30;;;;;;;1.90;1.40;;;15.60;99.90;;;;;;5040294;28;20781;-48
2022/06/03 08:47:06;;;;;;;4.23;1.60;;;15.80;99.90;;;;;;5056467;28;20528;-54
2022/06/03 08:49:47;;;;;;;1.50;1.40;;;15.90;99.90;;;;;;5048505;28;20248;-52
2022/06/03 08:52:19;;;;;;;2.23;1.60;;;16.00;99.90;;;;;;5040189;28;20274;-49
2022/06/03 08:54:51;;;;;;;3.57;1.70;;;16.00;99.90;;;;;;5043345;28;20203;-49
2022/06/03 08:57:22;;;;;;;3.40;1.60;;;16.20;99.90;;;;;;5052345;28;20191;-50
2022/06/03 08:59:54;;;;;;;2.80;1.70;;;16.30;99.90;;;;;;5060111;28;20218;-50
2022/06/03 09:02:27;;;;;;;6.43;1.40;;;16.30;99.90;;;;;;5040181;28;20191;-49
2022/06/03 09:05:02;;;;;;;2.20;1.90;;;16.40;99.90;;;;;;5054616;28;20325;-53
2022/06/03 09:07:38;;;;;;;2.10;1.50;;;16.40;99.90;;;;;;5045492;28;20919;-49
2022/06/03 09:10:12;;;;;;;5.07;1.50;;;16.50;99.90;;;;;;5042341;28;20351;-51
2022/06/03 09:12:51;;;;;;;3.00;1.40;;;16.50;99.90;;;;;;5043202;28;20257;-50
2022/06/03 09:15:22;;;;;;;2.83;1.47;;;16.60;99.90;;;;;;5040349;28;20211;-52
2022/06/03 09:17:53;;;;;;;4.80;2.20;;;16.70;99.90;;;;;;5056887;28;20195;-48
2022/06/03 09:20:25;;;;;;;2.17;1.60;;;16.70;99.90;;;;;;5043406;28;20234;-48
2022/06/03 09:22:59;;;;;;;2.63;1.60;;;16.80;99.90;;;;;;5046601;28;20206;-52
2022/06/03 09:25:31;;;;;;;2.80;1.60;;;16.90;99.50;;;;;;5045199;28;20206;-48
2022/06/03 09:28:00;;;;;;;1.90;1.70;;;16.90;99.30;;;;;;5046676;28;20567;-55
2022/06/03 09:30:32;;;;;;;3.23;2.00;;;16.90;98.80;;;;;;5050411;28;20283;-50
2022/06/03 09:33:05;;;;;;;1.20;1.10;;;17.00;98.00;;;;;;5041746;28;20691;-54
2022/06/03 09:35:37;;;;;;;1.97;1.17;;;17.00;97.00;;;;;;5056400;28;20225;-53
2022/06/03 09:38:07;;;;;;;3.63;1.30;;;17.00;95.30;;;;;;5049704;28;20223;-50
2022/06/03 09:40:40;;;;;;;1.40;1.33;;;17.10;96.30;;;;;;5047903;28;20248;-50
2022/06/03 09:43:14;;;;;;;2.20;1.10;;;17.20;95.10;;;;;;5043184;28;20206;-51
2022/06/03 09:45:45;;;;;;;1.57;1.10;;;17.10;93.70;;;;;;5053967;28;20248;-49
2022/06/03 09:48:13;;;;;;;1.67;1.10;;;17.20;93.10;;;;;;5035424;28;20372;-49
2022/06/03 09:50:47;;;;;;;1.30;1.17;;;17.20;93.50;;;;;;5050361;28;20201;-51
2022/06/03 09:53:17;;;;;;;3.03;2.10;;;17.30;94.50;;;;;;5048809;28;20277;-47
2022/06/03 09:55:50;;;;;;;3.80;1.83;;;17.40;94.70;;;;;;5061916;28;20197;-48
2022/06/03 09:58:21;;;;;;;4.03;1.73;;;17.50;94.10;;;;;;5054271;28;20874;-46
2022/06/03 10:00:51;;;;;;;2.97;1.47;;;17.50;95.10;;;;;;5049927;28;20211;-49
2022/06/03 10:03:19;;;;;;;1.50;1.00;;;17.60;95.20;;;;;;5040255;28;20217;-47
2022/06/03 10:05:51;;;;;;;1.43;0.90;;;17.70;94.20;;;;;;5049938;28;20218;-50
2022/06/03 10:08:20;;;;;;;1.80;1.30;;;17.70;93.00;;;;;;5052504;28;20199;-50
2022/06/03 10:13:47;;;;;;;3.13;0.93;;;17.80;91.80;;;;;;4998059;28;20303;-47
2022/06/03 10:16:14;;;;;;;1.80;0.80;;;17.80;91.10;;;;;;4999767;28;20714;-47
2022/06/03 10:18:43;;;;;;;2.53;0.90;;;17.80;90.80;;;;;;5017722;28;20234;-47
2022/06/03 10:21:31;;;;;;;1.30;0.80;;;17.90;90.80;;;;;;5052667;28;20198;-49
2022/06/03 10:24:01;;;;;;;2.77;0.93;;;18.20;90.60;;;;;;5051430;28;20202;-49
2022/06/03 10:26:35;;;;;;;1.70;1.00;;;18.30;89.60;;;;;;5054474;28;20209;-49
2022/06/03 10:29:08;;;;;;;2.10;1.23;;;18.30;87.90;;;;;;5042166;28;20228;-50
2022/06/03 10:31:36;;;;;;;1.17;0.70;;;18.30;87.80;;;;;;5055269;28;20264;-51
2022/06/03 10:34:12;;;;;;;1.80;0.97;;;18.40;88.00;;;;;;5033651;28;20255;-51
2022/06/03 10:36:43;;;;;;;1.30;1.20;;;18.50;87.70;;;;;;5061210;28;20202;-51
2022/06/03 10:39:15;;;;;;;1.03;0.90;;;18.60;85.50;;;;;;5048905;28;20207;-47
2022/06/03 10:41:44;;;;;;;0.90;0.90;;;18.50;85.60;;;;;;5050842;28;20206;-46
2022/06/03 10:44:14;;;;;;;1.00;0.80;;;18.50;85.40;;;;;;5040961;28;20271;-50
2022/06/03 10:46:56;;;;;;;0.93;0.80;;;18.60;86.40;;;;;;5054964;28;20202;-48
2022/06/03 10:49:24;;;;;;;0.83;0.80;;;18.70;84.30;;;;;;5048799;28;20226;-49
2022/06/03 11:02:57;;;;;;;1.30;0.90;;;18.90;85.80;;;;;;5039039;28;20289;-49
2022/06/03 11:05:27;;;;;;;3.20;1.10;;;18.90;85.50;;;;;;5040531;28;20202;-47
2022/06/03 11:08:02;;;;;;;1.13;0.80;;;19.00;86.80;;;;;;5050681;28;20197;-49
2022/06/03 11:10:36;;;;;;;1.23;0.90;;;19.10;86.00;;;;;;5047423;28;20567;-47
2022/06/03 11:13:08;;;;;;;2.10;0.80;;;19.10;85.40;;;;;;5054206;28;20210;-51
2022/06/03 11:15:37;;;;;;;2.93;0.70;;;19.10;84.30;;;;;;5047761;28;20604;-50
2022/06/03 11:18:16;;;;;;;1.17;0.80;;;19.10;82.90;;;;;;5042883;28;20261;-47
2022/06/03 11:20:44;;;;;;;1.10;0.83;;;19.10;83.00;;;;;;5043570;28;20217;-49
2022/06/03 11:23:14;;;;;;;2.50;0.80;;;19.10;81.20;;;;;;5052070;28;20252;-49
2022/06/03 11:25:44;;;;;;;0.97;0.50;;;19.10;79.60;;;;;;5051197;28;20194;-50
2022/06/03 11:28:14;;;;;;;0.80;0.57;;;19.10;79.20;;;;;;5057085;28;20187;-47
2022/06/03 11:30:47;;;;;;;1.80;0.80;;;19.10;77.70;;;;;;5055285;28;20197;-49
2022/06/03 11:33:20;;;;;;;0.97;0.50;;;19.20;79.60;;;;;;5050329;28;20289;-48
2022/06/03 11:35:51;;;;;;;0.97;0.93;;;19.30;79.30;;;;;;5042354;28;20788;-51
2022/06/03 11:38:29;;;;;;;1.37;0.70;;;19.30;79.60;;;;;;5048860;28;20202;-50
2022/06/03 11:41:01;;;;;;;0.60;0.60;;;19.30;77.30;;;;;;5050349;28;20622;-50
2022/06/03 11:43:34;;;;;;;0.40;0.40;;;19.40;76.90;;;;;;5051251;28;20202;-47
2022/06/03 11:46:05;;;;;;;1.33;0.60;;;19.40;77.30;;;;;;5046575;28;20225;-50
2022/06/03 11:48:37;;;;;;;0.70;0.70;;;19.50;75.90;;;;;;5050217;28;20309;-49
2022/06/03 11:51:06;;;;;;;1.53;0.87;;;19.60;74.90;;;;;;5040321;28;20260;-50
2022/06/03 11:53:39;;;;;;;3.53;1.07;;;19.60;75.00;;;;;;5058014;28;20222;-48
2022/06/03 11:56:09;;;;;;;0.70;0.70;;;19.80;73.20;;;;;;5044621;28;20217;-48
2022/06/03 11:58:59;;;;;;;0.90;0.73;;;19.80;73.40;;;;;;5044012;28;20215;-50
2022/06/03 12:01:35;;;;;;;1.53;0.80;;;19.90;71.90;;;;;;5051024;28;20199;-46
2022/06/03 12:04:12;;;;;;;1.93;0.80;;;19.90;73.40;;;;;;5039389;28;20198;-49
2022/06/03 12:06:43;;;;;;;1.60;0.77;;;20.00;73.50;;;;;;5043591;28;20217;-50
2022/06/03 12:09:27;;;;;;;1.47;0.77;;;20.10;72.10;;;;;;5040287;28;20230;-47
2022/06/03 12:14:46;;;;;;;2.67;0.70;;;20.00;71.70;;;;;;5042271;28;20211;-49
2022/06/03 12:17:27;;;;;;;2.67;0.80;;;20.10;70.20;;;;;;5044381;28;20959;-47
2022/06/03 12:19:54;;;;;;;2.33;0.73;;;20.10;69.00;;;;;;5052824;28;20209;-48
2022/06/03 12:22:41;;;;;;;0.90;0.70;;;20.20;70.30;;;;;;5053670;28;20234;-47
2022/06/03 12:25:44;;;;;;;1.27;0.73;;;20.30;68.20;;;;;;5044977;28;20218;-48
2022/06/03 12:28:19;;;;;;;1.33;1.00;;;20.50;66.60;;;;;;5040732;28;20240;-47
2022/06/03 12:30:50;;;;;;;0.57;0.53;;;20.50;66.00;;;;;;5042182;28;20652;-50
2022/06/03 12:33:27;;;;;;;0.90;0.90;;;20.60;66.80;;;;;;5048666;28;20264;-50
2022/06/03 12:35:58;;;;;;;2.60;0.67;;;20.60;66.80;;;;;;5047222;28;20309;-53
2022/06/03 12:38:34;;;;;;;1.03;0.77;;;20.60;67.60;;;;;;5035089;28;20293;-52
2022/06/03 12:41:05;;;;;;;2.30;0.90;;;20.80;68.90;;;;;;5044949;28;20191;-50
2022/06/03 12:43:56;;;;;;;1.60;0.80;;;21.00;66.00;;;;;;5062300;28;20202;-51
2022/06/03 12:46:40;;;;;;;0.70;0.70;;;21.00;65.40;;;;;;5062974;28;20218;-47
2022/06/03 12:49:19;;;;;;;1.73;0.90;;;21.10;69.00;;;;;;5043116;28;20222;-52
2022/06/03 12:52:05;;;;;;;1.65;1.00;;;21.30;65.00;;;;;;5056478;28;20305;-50
2022/06/03 12:54:35;;;;;;;1.37;0.80;;;21.50;62.80;;;;;;5043338;28;20713;-51
2022/06/03 12:57:08;;;;;;;1.23;0.70;;;21.80;65.50;;;;;;5054310;28;20269;-52
2022/06/03 12:59:44;;;;;;;0.70;0.70;;;22.50;64.00;;;;;;5047796;28;20618;-52
2022/06/03 13:02:17;;;;;;;2.10;1.05;;;23.00;63.60;;;;;;5043641;28;20202;-52
2022/06/03 13:05:09;;;;;;;1.20;0.90;;;23.30;63.20;;;;;;5043853;28;20201;-51
2022/06/03 13:07:55;;;;;;;1.70;0.80;;;23.30;60.60;;;;;;5047356;28;20297;-54
2022/06/03 13:10:32;;;;;;;2.28;0.98;;;23.50;63.30;;;;;;5052712;28;20227;-54
2022/06/03 13:13:37;;;;;;;1.55;0.98;;;23.80;58.80;;;;;;5046739;28;20667;-49
2022/06/03 13:16:41;;;;;;;5.57;1.10;;;23.90;58.10;;;;;;5049742;28;20211;-52
2022/06/03 13:19:44;;;;;;;1.13;1.00;;;24.40;59.40;;;;;;5048614;28;20218;-49
2022/06/03 13:22:27;;;;;;;3.75;1.10;;;24.30;57.50;;;;;;4985828;28;20922;-50
2022/06/03 13:25:31;;;;;;;1.52;0.90;;;24.50;59.80;;;;;;5038644;28;20218;-51
2022/06/03 13:28:33;;;;;;;2.65;1.15;;;24.80;61.50;;;;;;5049109;28;20194;-53
2022/06/03 13:31:11;;;;;;;1.73;1.00;;;24.80;58.30;;;;;;5043050;28;20841;-53
2022/06/03 13:34:01;;;;;;;0.90;0.85;;;24.70;58.70;;;;;;5047690;28;20218;-50
2022/06/03 13:36:34;;;;;;;1.48;0.80;;;24.90;55.60;;;;;;5047090;28;20286;-52
2022/06/03 13:39:00;;;;;;;1.20;1.10;;;25.10;58.40;;;;;;5043141;28;20219;-51
2022/06/03 13:44:39;;;;;;;1.15;0.80;;;25.60;54.00;;;;;;5049963;28;20195;-48
2022/06/03 13:47:09;;;;;;;2.47;0.90;;;26.00;55.00;;;;;;5043355;28;20222;-47
2022/06/03 13:49:39;;;;;;;1.10;0.98;;;26.30;54.00;;;;;;5051362;28;20272;-47
2022/06/03 13:52:11;;;;;;;1.25;1.15;;;26.40;54.00;;;;;;5056068;28;20187;-50
2022/06/03 13:54:42;;;;;;;1.70;0.98;;;26.30;53.60;;;;;;5046422;28;20226;-52
2022/06/03 13:57:29;;;;;;;2.58;1.17;;;26.10;53.40;;;;;;5037686;28;20265;-52
2022/06/03 14:00:18;;;;;;;2.90;0.90;;;26.10;54.60;;;;;;5054297;28;20210;-47
2022/06/03 14:02:48;;;;;;;1.33;1.23;;;26.20;55.70;;;;;;5045195;28;20282;-49
2022/06/03 14:05:28;;;;;;;1.92;0.98;;;26.50;52.70;;;;;;5042740;28;20210;-50
2022/06/03 14:08:01;;;;;;;1.08;0.98;;;26.80;55.80;;;;;;5043433;28;20687;-50
2022/06/03 14:10:43;;;;;;;1.40;0.90;;;27.20;55.40;;;;;;5046127;28;20218;-51
2022/06/03 14:13:22;;;;;;;2.78;1.30;;;27.50;55.20;;;;;;5040369;28;20206;-52
2022/06/03 14:15:54;;;;;;;1.20;0.80;;;26.90;52.10;;;;;;5050671;28;20369;-53
2022/06/03 14:18:50;;;;;;;1.42;0.88;;;26.30;52.40;;;;;;5057552;28;20266;-47
2022/06/03 14:21:23;;;;;;;0.90;0.90;;;25.80;51.90;;;;;;5047808;28;20206;-48
2022/06/03 14:23:53;;;;;;;1.10;1.00;;;25.90;53.60;;;;;;5051663;28;20194;-47
2022/06/03 14:26:24;;;;;;;1.42;0.98;;;26.30;53.30;;;;;;5045288;28;20194;-51
2022/06/03 14:28:56;;;;;;;1.88;0.90;;;26.90;52.80;;;;;;5040337;28;20719;-49
2022/06/03 14:31:32;;;;;;;0.90;0.90;;;26.90;51.90;;;;;;5052134;28;20203;-53
2022/06/03 14:34:07;;;;;;;1.67;1.15;;;26.90;51.50;;;;;;5041556;28;20222;-51
2022/06/03 14:36:59;;;;;;;1.17;0.80;;;26.90;51.60;;;;;;5038732;28;20214;-52
2022/06/03 14:39:31;;;;;;;1.42;0.80;;;26.80;52.10;;;;;;5046144;28;20618;-48
2022/06/03 14:42:02;;;;;;;1.67;1.13;;;26.90;51.30;;;;;;5041773;28;20203;-49
2022/06/03 14:44:31;;;;;;;2.03;0.80;;;27.20;50.20;;;;;;5045591;28;20215;-50